TAM9631 SBPS-SBCG
Flight info
| Callsign | TAM9631 |
|---|---|
| Flight time | 2h 22m |
| Altitude | 34000 |
| Route | EDRAG DCT DORDU DCT AZOIC DCT UTGIB UM544 VUROB |
| Aircraft | A319/M-SDE3FGHIRWY/LB1 |
Departure
| Time | 2026-05-06 00:18 |
|---|---|
| Airport | Porto Seguro International Airport (SBPS) |
Arrival
| Time | 2026-05-06 02:40 |
|---|---|
| Airport | Campo Grande Airport (SBCG) |
| Time | Latitude | Longitude | Altitude | Speed | Heading |
|---|---|---|---|---|---|
| 2026-05-06 00:03 | -16.44059 | -39.08060 | 194 ft | 0 kts | 165° |
| 2026-05-06 00:12 | -16.44040 | -39.08065 | 197 ft | 4 kts | 152° |
| 2026-05-06 00:12 | -16.44026 | -39.08075 | 207 ft | 0 kts | 142° |
| 2026-05-06 00:13 | -16.44031 | -39.08074 | 204 ft | 1 kts | 166° |
| 2026-05-06 00:14 | -16.44033 | -39.08081 | 199 ft | 2 kts | 251° |
| 2026-05-06 00:14 | -16.44017 | -39.08105 | 198 ft | 8 kts | 310° |
| 2026-05-06 00:14 | -16.43937 | -39.08134 | 194 ft | 14 kts | 346° |
| 2026-05-06 00:14 | -16.43856 | -39.08101 | 200 ft | 14 kts | 71° |
| 2026-05-06 00:15 | -16.43826 | -39.07999 | 193 ft | 15 kts | 73° |
| 2026-05-06 00:15 | -16.43795 | -39.07890 | 202 ft | 16 kts | 72° |
| 2026-05-06 00:15 | -16.43764 | -39.07778 | 201 ft | 16 kts | 75° |
| 2026-05-06 00:15 | -16.43735 | -39.07663 | 199 ft | 17 kts | 74° |
| 2026-05-06 00:16 | -16.43701 | -39.07541 | 200 ft | 18 kts | 73° |
| 2026-05-06 00:16 | -16.43676 | -39.07459 | 203 ft | 18 kts | 72° |
| 2026-05-06 00:16 | -16.43635 | -39.07279 | 195 ft | 20 kts | 91° |
| 2026-05-06 00:16 | -16.43612 | -39.07209 | 199 ft | 13 kts | 289° |
| 2026-05-06 00:17 | -16.43632 | -39.07265 | 195 ft | 7 kts | 250° |
| 2026-05-06 00:17 | -16.43642 | -39.07306 | 202 ft | 18 kts | 259° |
| 2026-05-06 00:17 | -16.43750 | -39.07708 | 200 ft | 96 kts | 254° |
| 2026-05-06 00:17 | -16.43992 | -39.08597 | 247 ft | 150 kts | 253° |
| 2026-05-06 00:18 | -16.44260 | -39.09645 | 782 ft | 151 kts | 253° |
| 2026-05-06 00:18 | -16.44508 | -39.10749 | 1250 ft | 160 kts | 251° |
| 2026-05-06 00:18 | -16.44831 | -39.11949 | 1528 ft | 188 kts | 249° |
| 2026-05-06 00:18 | -16.45226 | -39.13322 | 1860 ft | 207 kts | 249° |
| 2026-05-06 00:19 | -16.45717 | -39.14799 | 2165 ft | 224 kts | 237° |
| 2026-05-06 00:19 | -16.46899 | -39.15893 | 2417 ft | 240 kts | 202° |
| 2026-05-06 00:19 | -16.48529 | -39.16431 | 2919 ft | 249 kts | 190° |
| 2026-05-06 00:19 | -16.50251 | -39.16782 | 3537 ft | 254 kts | 188° |
| 2026-05-06 00:20 | -16.52012 | -39.17111 | 4255 ft | 260 kts | 188° |
| 2026-05-06 00:20 | -16.53782 | -39.17470 | 5074 ft | 264 kts | 189° |
| 2026-05-06 00:20 | -16.55600 | -39.17882 | 5856 ft | 269 kts | 190° |
| 2026-05-06 00:20 | -16.57433 | -39.18334 | 6635 ft | 273 kts | 191° |
| 2026-05-06 00:21 | -16.59292 | -39.18823 | 7358 ft | 278 kts | 192° |
| 2026-05-06 00:21 | -16.61185 | -39.19339 | 8073 ft | 282 kts | 192° |
| 2026-05-06 00:21 | -16.63097 | -39.19865 | 8786 ft | 286 kts | 192° |
| 2026-05-06 00:21 | -16.65013 | -39.20507 | 9483 ft | 293 kts | 202° |
| 2026-05-06 00:22 | -16.66742 | -39.21693 | 10160 ft | 302 kts | 220° |
| 2026-05-06 00:22 | -16.68153 | -39.23379 | 10521 ft | 320 kts | 230° |
| 2026-05-06 00:22 | -16.69552 | -39.25287 | 10652 ft | 342 kts | 231° |
| 2026-05-06 00:22 | -16.71009 | -39.27307 | 10814 ft | 360 kts | 231° |
| 2026-05-06 00:23 | -16.72530 | -39.29426 | 11259 ft | 368 kts | 232° |
| 2026-05-06 00:23 | -16.74072 | -39.31574 | 11818 ft | 371 kts | 232° |
| 2026-05-06 00:23 | -16.75628 | -39.33735 | 12373 ft | 375 kts | 232° |
| 2026-05-06 00:23 | -16.77192 | -39.35924 | 12933 ft | 378 kts | 234° |
| 2026-05-06 00:24 | -16.78469 | -39.38347 | 13467 ft | 383 kts | 246° |
| 2026-05-06 00:24 | -16.79292 | -39.41013 | 14006 ft | 387 kts | 255° |
| 2026-05-06 00:24 | -16.79988 | -39.43739 | 14496 ft | 389 kts | 254° |
| 2026-05-06 00:24 | -16.80677 | -39.46444 | 15002 ft | 391 kts | 256° |
| 2026-05-06 00:25 | -16.81085 | -39.49257 | 15512 ft | 394 kts | 264° |
| 2026-05-06 00:25 | -16.81331 | -39.52121 | 16028 ft | 395 kts | 264° |
| 2026-05-06 00:25 | -16.81577 | -39.54982 | 16544 ft | 397 kts | 264° |
| 2026-05-06 00:25 | -16.81824 | -39.57865 | 17061 ft | 399 kts | 264° |
| 2026-05-06 00:26 | -16.82071 | -39.60760 | 17601 ft | 401 kts | 264° |
| 2026-05-06 00:26 | -16.82316 | -39.63661 | 18133 ft | 402 kts | 264° |
| 2026-05-06 00:26 | -16.82656 | -39.66564 | 18625 ft | 404 kts | 257° |
| 2026-05-06 00:26 | -16.83469 | -39.69366 | 19095 ft | 404 kts | 246° |
| 2026-05-06 00:27 | -16.84786 | -39.71975 | 19560 ft | 405 kts | 236° |
| 2026-05-06 00:27 | -16.86442 | -39.74311 | 20023 ft | 406 kts | 232° |
| 2026-05-06 00:27 | -16.88149 | -39.76664 | 20500 ft | 407 kts | 232° |
| 2026-05-06 00:27 | -16.89855 | -39.79029 | 20954 ft | 408 kts | 233° |
| 2026-05-06 00:28 | -16.91565 | -39.81413 | 21401 ft | 409 kts | 233° |
| 2026-05-06 00:28 | -16.93269 | -39.83800 | 21847 ft | 410 kts | 233° |
| 2026-05-06 00:28 | -16.94980 | -39.86200 | 22282 ft | 411 kts | 233° |
| 2026-05-06 00:28 | -16.96658 | -39.88619 | 22682 ft | 412 kts | 238° |
| 2026-05-06 00:29 | -16.97991 | -39.91265 | 23067 ft | 413 kts | 248° |
| 2026-05-06 00:29 | -16.98860 | -39.94130 | 23469 ft | 414 kts | 256° |
| 2026-05-06 00:29 | -16.99535 | -39.97018 | 23831 ft | 415 kts | 256° |
| 2026-05-06 00:29 | -17.00225 | -39.99946 | 24140 ft | 416 kts | 256° |
| 2026-05-06 00:30 | -17.00922 | -40.02892 | 24441 ft | 418 kts | 256° |
| 2026-05-06 00:30 | -17.01623 | -40.05843 | 24741 ft | 419 kts | 256° |
| 2026-05-06 00:30 | -17.02328 | -40.08807 | 25049 ft | 421 kts | 256° |
| 2026-05-06 00:30 | -17.03039 | -40.11782 | 25342 ft | 423 kts | 256° |
| 2026-05-06 00:31 | -17.03749 | -40.14769 | 25646 ft | 424 kts | 256° |
| 2026-05-06 00:31 | -17.04456 | -40.17765 | 25958 ft | 426 kts | 256° |
| 2026-05-06 00:31 | -17.05166 | -40.20783 | 26251 ft | 427 kts | 256° |
| 2026-05-06 00:31 | -17.05877 | -40.23806 | 26561 ft | 429 kts | 256° |
| 2026-05-06 00:32 | -17.06589 | -40.26836 | 26853 ft | 431 kts | 256° |
| 2026-05-06 00:32 | -17.07305 | -40.29886 | 27156 ft | 432 kts | 256° |
| 2026-05-06 00:32 | -17.08021 | -40.32938 | 27455 ft | 434 kts | 256° |
| 2026-05-06 00:32 | -17.08738 | -40.36009 | 27748 ft | 435 kts | 256° |
| 2026-05-06 00:33 | -17.09456 | -40.39085 | 28036 ft | 437 kts | 256° |
| 2026-05-06 00:33 | -17.10179 | -40.42179 | 28315 ft | 438 kts | 256° |
| 2026-05-06 00:33 | -17.10906 | -40.45278 | 28589 ft | 440 kts | 256° |
| 2026-05-06 00:33 | -17.11638 | -40.48391 | 28858 ft | 441 kts | 256° |
| 2026-05-06 00:34 | -17.12361 | -40.51469 | 29135 ft | 443 kts | 256° |
| 2026-05-06 00:34 | -17.13094 | -40.54599 | 29386 ft | 444 kts | 256° |
| 2026-05-06 00:34 | -17.13828 | -40.57746 | 29646 ft | 446 kts | 256° |
| 2026-05-06 00:34 | -17.14562 | -40.60900 | 29898 ft | 447 kts | 256° |
| 2026-05-06 00:35 | -17.15294 | -40.64054 | 30251 ft | 446 kts | 256° |
| 2026-05-06 00:35 | -17.16026 | -40.67197 | 30587 ft | 444 kts | 256° |
| 2026-05-06 00:35 | -17.16758 | -40.70330 | 30902 ft | 443 kts | 256° |
| 2026-05-06 00:35 | -17.17490 | -40.73455 | 31221 ft | 442 kts | 256° |
| 2026-05-06 00:36 | -17.18216 | -40.76573 | 31548 ft | 440 kts | 256° |
| 2026-05-06 00:36 | -17.18936 | -40.79675 | 31880 ft | 439 kts | 256° |
| 2026-05-06 00:36 | -17.19653 | -40.82775 | 32209 ft | 437 kts | 256° |
| 2026-05-06 00:36 | -17.20367 | -40.85863 | 32548 ft | 436 kts | 256° |
| 2026-05-06 00:37 | -17.21084 | -40.88962 | 32886 ft | 435 kts | 256° |
| 2026-05-06 00:37 | -17.21796 | -40.92035 | 33224 ft | 433 kts | 255° |
| 2026-05-06 00:37 | -17.22505 | -40.95089 | 33561 ft | 432 kts | 255° |
| 2026-05-06 00:37 | -17.23214 | -40.98138 | 33891 ft | 431 kts | 255° |
| 2026-05-06 00:38 | -17.23919 | -41.01183 | 34156 ft | 430 kts | 255° |
| 2026-05-06 00:38 | -17.25314 | -41.07228 | 34214 ft | 426 kts | 255° |
| 2026-05-06 00:39 | -17.26705 | -41.13260 | 34218 ft | 426 kts | 255° |
| 2026-05-06 00:39 | -17.28086 | -41.19287 | 34229 ft | 426 kts | 255° |
| 2026-05-06 00:40 | -17.29478 | -41.25311 | 34216 ft | 426 kts | 255° |
| 2026-05-06 00:40 | -17.30863 | -41.31337 | 34217 ft | 426 kts | 255° |
| 2026-05-06 00:41 | -17.32245 | -41.37366 | 34209 ft | 426 kts | 255° |
| 2026-05-06 00:41 | -17.33616 | -41.43356 | 34212 ft | 426 kts | 255° |
| 2026-05-06 00:42 | -17.34990 | -41.49383 | 34213 ft | 426 kts | 255° |
| 2026-05-06 00:42 | -17.36373 | -41.55418 | 34218 ft | 426 kts | 255° |
| 2026-05-06 00:43 | -17.37757 | -41.61444 | 34216 ft | 426 kts | 255° |
| 2026-05-06 00:43 | -17.39127 | -41.67474 | 34221 ft | 426 kts | 255° |
| 2026-05-06 00:44 | -17.40498 | -41.73517 | 34236 ft | 426 kts | 255° |
| 2026-05-06 00:44 | -17.41868 | -41.79550 | 34225 ft | 426 kts | 255° |
| 2026-05-06 00:45 | -17.43234 | -41.85586 | 34227 ft | 425 kts | 255° |
| 2026-05-06 00:45 | -17.44592 | -41.91606 | 34228 ft | 425 kts | 255° |
| 2026-05-06 00:46 | -17.45956 | -41.97637 | 34232 ft | 425 kts | 255° |
| 2026-05-06 00:46 | -17.47195 | -42.03695 | 34223 ft | 426 kts | 257° |
| 2026-05-06 00:47 | -17.48157 | -42.09821 | 34227 ft | 426 kts | 259° |
| 2026-05-06 00:47 | -17.49067 | -42.15954 | 34225 ft | 426 kts | 258° |
| 2026-05-06 00:48 | -17.50026 | -42.22061 | 34221 ft | 426 kts | 258° |
| 2026-05-06 00:48 | -17.51018 | -42.28187 | 34224 ft | 426 kts | 258° |
| 2026-05-06 00:49 | -17.52006 | -42.34305 | 34236 ft | 426 kts | 258° |
| 2026-05-06 00:49 | -17.52988 | -42.40427 | 34235 ft | 426 kts | 258° |
| 2026-05-06 00:50 | -17.53962 | -42.46552 | 34225 ft | 426 kts | 258° |
| 2026-05-06 00:50 | -17.54945 | -42.52678 | 34223 ft | 426 kts | 258° |
| 2026-05-06 00:51 | -17.55923 | -42.58813 | 34225 ft | 426 kts | 258° |
| 2026-05-06 00:51 | -17.56886 | -42.64899 | 34218 ft | 426 kts | 258° |
| 2026-05-06 00:52 | -17.57849 | -42.71033 | 34226 ft | 426 kts | 258° |
| 2026-05-06 00:52 | -17.58820 | -42.77166 | 34224 ft | 426 kts | 258° |
| 2026-05-06 00:53 | -17.59795 | -42.83299 | 34223 ft | 426 kts | 258° |
| 2026-05-06 00:53 | -17.60757 | -42.89432 | 34227 ft | 426 kts | 257° |
| 2026-05-06 00:54 | -17.61714 | -42.95538 | 34225 ft | 426 kts | 258° |
| 2026-05-06 00:54 | -17.62675 | -43.01664 | 34230 ft | 426 kts | 257° |
| 2026-05-06 00:55 | -17.63638 | -43.07802 | 34227 ft | 426 kts | 257° |
| 2026-05-06 00:55 | -17.64601 | -43.13924 | 34227 ft | 426 kts | 257° |
| 2026-05-06 00:56 | -17.65554 | -43.20020 | 34229 ft | 426 kts | 258° |
| 2026-05-06 00:56 | -17.66500 | -43.26152 | 34228 ft | 426 kts | 258° |
| 2026-05-06 00:57 | -17.67453 | -43.32292 | 34230 ft | 426 kts | 258° |
| 2026-05-06 00:57 | -17.68414 | -43.38429 | 34230 ft | 426 kts | 257° |
| 2026-05-06 00:58 | -17.69357 | -43.44529 | 34218 ft | 426 kts | 258° |
| 2026-05-06 00:58 | -17.70290 | -43.50653 | 34245 ft | 426 kts | 258° |
| 2026-05-06 00:59 | -17.71233 | -43.56787 | 34236 ft | 426 kts | 258° |
| 2026-05-06 00:59 | -17.72024 | -43.61883 | 34231 ft | 426 kts | 258° |
| 2026-05-06 01:00 | -17.72972 | -43.68015 | 34226 ft | 425 kts | 257° |
| 2026-05-06 01:00 | -17.73906 | -43.74146 | 34238 ft | 426 kts | 258° |
| 2026-05-06 01:01 | -17.74834 | -43.80286 | 34239 ft | 425 kts | 258° |
| 2026-05-06 01:01 | -17.75766 | -43.86382 | 34225 ft | 425 kts | 257° |
| 2026-05-06 01:02 | -17.76709 | -43.92509 | 34226 ft | 425 kts | 257° |
| 2026-05-06 01:02 | -17.77636 | -43.98640 | 34231 ft | 425 kts | 258° |
| 2026-05-06 01:03 | -17.78560 | -44.04790 | 34213 ft | 425 kts | 257° |
| 2026-05-06 01:03 | -17.79477 | -44.10897 | 34223 ft | 425 kts | 258° |
| 2026-05-06 01:04 | -17.80397 | -44.17034 | 34223 ft | 425 kts | 257° |
| 2026-05-06 01:04 | -17.81325 | -44.23166 | 34207 ft | 425 kts | 257° |
| 2026-05-06 01:05 | -17.82245 | -44.29298 | 34212 ft | 425 kts | 257° |
| 2026-05-06 01:05 | -17.83163 | -44.35391 | 34212 ft | 425 kts | 257° |
| 2026-05-06 01:06 | -17.84085 | -44.41523 | 34210 ft | 425 kts | 257° |
| 2026-05-06 01:06 | -17.84992 | -44.47658 | 34209 ft | 425 kts | 257° |
| 2026-05-06 01:07 | -17.85899 | -44.53806 | 34212 ft | 425 kts | 257° |
| 2026-05-06 01:07 | -17.86815 | -44.59917 | 34211 ft | 424 kts | 257° |
| 2026-05-06 01:08 | -17.87724 | -44.66037 | 34209 ft | 424 kts | 257° |
| 2026-05-06 01:08 | -17.88625 | -44.72130 | 34205 ft | 424 kts | 257° |
| 2026-05-06 01:09 | -17.89526 | -44.78258 | 34203 ft | 424 kts | 257° |
| 2026-05-06 01:09 | -17.90428 | -44.84400 | 34196 ft | 424 kts | 257° |
| 2026-05-06 01:10 | -17.91326 | -44.90515 | 34198 ft | 424 kts | 257° |
| 2026-05-06 01:10 | -17.92224 | -44.96594 | 34198 ft | 424 kts | 257° |
| 2026-05-06 01:11 | -17.93118 | -45.02719 | 34200 ft | 424 kts | 257° |
| 2026-05-06 01:11 | -17.94009 | -45.08849 | 34199 ft | 424 kts | 257° |
| 2026-05-06 01:12 | -17.94892 | -45.14966 | 34196 ft | 424 kts | 257° |
| 2026-05-06 01:12 | -17.95773 | -45.21043 | 34189 ft | 424 kts | 257° |
| 2026-05-06 01:13 | -17.96661 | -45.27157 | 34192 ft | 424 kts | 257° |
| 2026-05-06 01:13 | -17.97541 | -45.33273 | 34195 ft | 423 kts | 257° |
| 2026-05-06 01:14 | -17.98873 | -45.42480 | 34197 ft | 423 kts | 256° |
| 2026-05-06 01:14 | -17.99747 | -45.48549 | 34200 ft | 423 kts | 256° |
| 2026-05-06 01:15 | -18.00621 | -45.54662 | 34200 ft | 423 kts | 256° |
| 2026-05-06 01:15 | -18.01495 | -45.60781 | 34200 ft | 422 kts | 256° |
| 2026-05-06 01:16 | -18.02366 | -45.66894 | 34202 ft | 422 kts | 256° |
| 2026-05-06 01:16 | -18.03237 | -45.73001 | 34200 ft | 422 kts | 256° |
| 2026-05-06 01:17 | -18.04106 | -45.79081 | 34198 ft | 422 kts | 255° |
| 2026-05-06 01:17 | -18.04974 | -45.85192 | 34202 ft | 422 kts | 256° |
| 2026-05-06 01:18 | -18.05837 | -45.91307 | 34205 ft | 422 kts | 256° |
| 2026-05-06 01:18 | -18.06700 | -45.97416 | 34206 ft | 422 kts | 255° |
| 2026-05-06 01:19 | -18.07556 | -46.03481 | 34203 ft | 422 kts | 255° |
| 2026-05-06 01:19 | -18.08412 | -46.09595 | 34189 ft | 422 kts | 255° |
| 2026-05-06 01:20 | -18.09260 | -46.15710 | 34193 ft | 422 kts | 255° |
| 2026-05-06 01:20 | -18.10117 | -46.21823 | 34193 ft | 422 kts | 255° |
| 2026-05-06 01:21 | -18.10966 | -46.27895 | 34200 ft | 422 kts | 255° |
| 2026-05-06 01:21 | -18.11817 | -46.34007 | 34199 ft | 422 kts | 255° |
| 2026-05-06 01:22 | -18.12661 | -46.40123 | 34195 ft | 422 kts | 255° |
| 2026-05-06 01:22 | -18.13509 | -46.46234 | 34199 ft | 422 kts | 255° |
| 2026-05-06 01:23 | -18.14356 | -46.52348 | 34198 ft | 422 kts | 255° |
| 2026-05-06 01:23 | -18.15198 | -46.58468 | 34196 ft | 423 kts | 254° |
| 2026-05-06 01:24 | -18.16033 | -46.64563 | 34202 ft | 423 kts | 254° |
| 2026-05-06 01:24 | -18.16871 | -46.70680 | 34204 ft | 423 kts | 254° |
| 2026-05-06 01:25 | -18.17708 | -46.76802 | 34203 ft | 423 kts | 255° |
| 2026-05-06 01:25 | -18.18541 | -46.82932 | 34204 ft | 423 kts | 254° |
| 2026-05-06 01:26 | -18.19375 | -46.89057 | 34204 ft | 422 kts | 254° |
| 2026-05-06 01:26 | -18.20212 | -46.95174 | 34204 ft | 423 kts | 254° |
| 2026-05-06 01:27 | -18.21039 | -47.01260 | 34197 ft | 423 kts | 254° |
| 2026-05-06 01:27 | -18.21871 | -47.07390 | 34196 ft | 423 kts | 254° |
| 2026-05-06 01:28 | -18.22691 | -47.13521 | 34199 ft | 423 kts | 255° |
| 2026-05-06 01:28 | -18.23514 | -47.19654 | 34196 ft | 423 kts | 254° |
| 2026-05-06 01:29 | -18.24342 | -47.25791 | 34199 ft | 423 kts | 255° |
| 2026-05-06 01:29 | -18.25162 | -47.31933 | 34201 ft | 423 kts | 255° |
| 2026-05-06 01:30 | -18.25973 | -47.38031 | 34201 ft | 423 kts | 254° |
| 2026-05-06 01:30 | -18.26791 | -47.44166 | 34209 ft | 423 kts | 255° |
| 2026-05-06 01:31 | -18.27608 | -47.50312 | 34187 ft | 423 kts | 255° |
| 2026-05-06 01:31 | -18.28426 | -47.56445 | 34187 ft | 424 kts | 255° |
| 2026-05-06 01:32 | -18.29233 | -47.62546 | 34187 ft | 424 kts | 255° |
| 2026-05-06 01:32 | -18.30038 | -47.68692 | 34192 ft | 424 kts | 255° |
| 2026-05-06 01:33 | -18.30877 | -47.74830 | 34195 ft | 423 kts | 253° |
| 2026-05-06 01:33 | -18.31914 | -47.80907 | 34190 ft | 421 kts | 252° |
| 2026-05-06 01:34 | -18.33011 | -47.86989 | 34180 ft | 421 kts | 252° |
| 2026-05-06 01:34 | -18.34056 | -47.93065 | 34165 ft | 422 kts | 253° |
| 2026-05-06 01:35 | -18.35066 | -47.99163 | 34166 ft | 423 kts | 253° |
| 2026-05-06 01:35 | -18.36075 | -48.05228 | 34165 ft | 423 kts | 253° |
| 2026-05-06 01:36 | -18.37097 | -48.11335 | 34175 ft | 423 kts | 253° |
| 2026-05-06 01:36 | -18.38114 | -48.17446 | 34165 ft | 423 kts | 253° |
| 2026-05-06 01:37 | -18.39117 | -48.23542 | 34167 ft | 423 kts | 253° |
| 2026-05-06 01:37 | -18.40127 | -48.29650 | 34169 ft | 423 kts | 253° |
| 2026-05-06 01:38 | -18.41133 | -48.35732 | 34173 ft | 424 kts | 253° |
| 2026-05-06 01:38 | -18.42147 | -48.41846 | 34168 ft | 424 kts | 253° |
| 2026-05-06 01:39 | -18.43159 | -48.47964 | 34166 ft | 424 kts | 254° |
| 2026-05-06 01:39 | -18.44165 | -48.54081 | 34164 ft | 424 kts | 254° |
| 2026-05-06 01:40 | -18.45168 | -48.60205 | 34161 ft | 424 kts | 254° |
| 2026-05-06 01:40 | -18.46173 | -48.66341 | 34153 ft | 424 kts | 254° |
| 2026-05-06 01:41 | -18.47164 | -48.72430 | 34164 ft | 424 kts | 254° |
| 2026-05-06 01:41 | -18.48000 | -48.77564 | 34158 ft | 424 kts | 254° |
| 2026-05-06 01:42 | -18.49162 | -48.84684 | 34157 ft | 424 kts | 254° |
| 2026-05-06 01:42 | -18.49995 | -48.89820 | 34152 ft | 425 kts | 254° |
| 2026-05-06 01:43 | -18.50986 | -48.95955 | 34154 ft | 425 kts | 254° |
| 2026-05-06 01:43 | -18.51978 | -49.02082 | 34154 ft | 425 kts | 254° |
| 2026-05-06 01:44 | -18.52966 | -49.08217 | 34163 ft | 425 kts | 254° |
| 2026-05-06 01:44 | -18.53956 | -49.14354 | 34151 ft | 425 kts | 254° |
| 2026-05-06 01:45 | -18.54950 | -49.20487 | 34152 ft | 425 kts | 254° |
| 2026-05-06 01:45 | -18.55940 | -49.26627 | 34139 ft | 425 kts | 254° |
| 2026-05-06 01:46 | -18.56913 | -49.32734 | 34134 ft | 425 kts | 255° |
| 2026-05-06 01:46 | -18.57888 | -49.38891 | 34137 ft | 425 kts | 255° |
| 2026-05-06 01:47 | -18.58866 | -49.45042 | 34135 ft | 425 kts | 255° |
| 2026-05-06 01:47 | -18.59844 | -49.51191 | 34134 ft | 425 kts | 255° |
| 2026-05-06 01:48 | -18.60823 | -49.57349 | 34127 ft | 426 kts | 255° |
| 2026-05-06 01:48 | -18.61802 | -49.63507 | 34123 ft | 426 kts | 255° |
| 2026-05-06 01:49 | -18.62774 | -49.69669 | 34126 ft | 426 kts | 255° |
| 2026-05-06 01:49 | -18.63744 | -49.75829 | 34122 ft | 426 kts | 255° |
| 2026-05-06 01:50 | -18.64713 | -49.81989 | 34122 ft | 426 kts | 255° |
| 2026-05-06 01:50 | -18.65672 | -49.88126 | 34117 ft | 426 kts | 255° |
| 2026-05-06 01:51 | -18.66657 | -49.94420 | 34121 ft | 426 kts | 255° |
| 2026-05-06 01:51 | -18.67622 | -50.00585 | 34113 ft | 426 kts | 255° |
| 2026-05-06 01:52 | -18.68574 | -50.06718 | 34112 ft | 426 kts | 255° |
| 2026-05-06 01:52 | -18.69539 | -50.12930 | 34115 ft | 426 kts | 255° |
| 2026-05-06 01:53 | -18.70501 | -50.19060 | 34118 ft | 426 kts | 255° |
| 2026-05-06 01:53 | -18.71460 | -50.25239 | 34114 ft | 427 kts | 255° |
| 2026-05-06 01:54 | -18.72406 | -50.31418 | 34111 ft | 427 kts | 256° |
| 2026-05-06 01:54 | -18.73352 | -50.37593 | 34115 ft | 427 kts | 255° |
| 2026-05-06 01:55 | -18.74308 | -50.43775 | 34107 ft | 427 kts | 255° |
| 2026-05-06 01:55 | -18.75264 | -50.49957 | 34100 ft | 427 kts | 255° |
| 2026-05-06 01:56 | -18.76213 | -50.56141 | 34102 ft | 427 kts | 256° |
| 2026-05-06 01:56 | -18.77154 | -50.62346 | 34105 ft | 428 kts | 256° |
| 2026-05-06 01:57 | -18.78100 | -50.68544 | 34102 ft | 428 kts | 256° |
| 2026-05-06 01:57 | -18.79047 | -50.74746 | 34105 ft | 428 kts | 256° |
| 2026-05-06 01:58 | -18.79984 | -50.80951 | 34108 ft | 428 kts | 256° |
| 2026-05-06 01:58 | -18.80928 | -50.87160 | 34112 ft | 429 kts | 256° |
| 2026-05-06 01:59 | -18.81868 | -50.93371 | 34107 ft | 429 kts | 256° |
| 2026-05-06 01:59 | -18.82801 | -50.99585 | 34107 ft | 429 kts | 256° |
| 2026-05-06 02:00 | -18.83729 | -51.05799 | 34110 ft | 429 kts | 256° |
| 2026-05-06 02:00 | -18.84665 | -51.12010 | 34110 ft | 428 kts | 256° |
| 2026-05-06 02:01 | -18.85596 | -51.18222 | 34108 ft | 428 kts | 256° |
| 2026-05-06 02:01 | -18.86521 | -51.24396 | 34107 ft | 428 kts | 256° |
| 2026-05-06 02:02 | -18.87453 | -51.30648 | 34107 ft | 429 kts | 256° |
| 2026-05-06 02:02 | -18.88367 | -51.36824 | 34101 ft | 429 kts | 256° |
| 2026-05-06 02:03 | -18.89293 | -51.43044 | 34101 ft | 429 kts | 256° |
| 2026-05-06 02:03 | -18.90215 | -51.49260 | 34103 ft | 429 kts | 256° |
| 2026-05-06 02:04 | -18.91132 | -51.55494 | 34102 ft | 429 kts | 256° |
| 2026-05-06 02:04 | -18.92052 | -51.61720 | 34103 ft | 429 kts | 256° |
| 2026-05-06 02:05 | -18.92972 | -51.67944 | 34109 ft | 429 kts | 256° |
| 2026-05-06 02:05 | -18.93879 | -51.74149 | 34109 ft | 429 kts | 256° |
| 2026-05-06 02:06 | -18.94783 | -51.80381 | 34107 ft | 429 kts | 256° |
| 2026-05-06 02:06 | -18.95692 | -51.86614 | 34107 ft | 429 kts | 256° |
| 2026-05-06 02:07 | -18.96602 | -51.92819 | 34106 ft | 429 kts | 256° |
| 2026-05-06 02:07 | -18.97511 | -51.99077 | 34123 ft | 434 kts | 257° |
| 2026-05-06 02:08 | -18.98441 | -52.05463 | 34115 ft | 445 kts | 257° |
| 2026-05-06 02:08 | -18.99375 | -52.11974 | 34122 ft | 447 kts | 257° |
| 2026-05-06 02:09 | -19.00298 | -52.18470 | 34121 ft | 448 kts | 257° |
| 2026-05-06 02:09 | -19.01229 | -52.24953 | 34117 ft | 448 kts | 257° |
| 2026-05-06 02:10 | -19.02170 | -52.31461 | 34114 ft | 448 kts | 257° |
| 2026-05-06 02:10 | -19.03105 | -52.37973 | 34112 ft | 448 kts | 257° |
| 2026-05-06 02:11 | -19.04026 | -52.44453 | 34114 ft | 447 kts | 257° |
| 2026-05-06 02:11 | -19.04950 | -52.50983 | 34115 ft | 448 kts | 257° |
| 2026-05-06 02:12 | -19.05872 | -52.57472 | 34109 ft | 447 kts | 257° |
| 2026-05-06 02:12 | -19.07836 | -52.63610 | 34104 ft | 438 kts | 237° |
| 2026-05-06 02:13 | -19.11326 | -52.68818 | 34101 ft | 436 kts | 231° |
| 2026-05-06 02:13 | -19.14946 | -52.74007 | 34103 ft | 437 kts | 232° |
| 2026-05-06 02:14 | -19.18547 | -52.79202 | 34096 ft | 437 kts | 232° |
| 2026-05-06 02:14 | -19.22122 | -52.84365 | 34100 ft | 437 kts | 232° |
| 2026-05-06 02:15 | -19.25715 | -52.89561 | 34094 ft | 438 kts | 232° |
| 2026-05-06 02:15 | -19.29323 | -52.94779 | 34098 ft | 438 kts | 232° |
| 2026-05-06 02:16 | -19.32920 | -52.99968 | 34099 ft | 438 kts | 232° |
| 2026-05-06 02:16 | -19.36505 | -53.05151 | 34096 ft | 438 kts | 232° |
| 2026-05-06 02:17 | -19.40117 | -53.10380 | 34103 ft | 438 kts | 232° |
| 2026-05-06 02:17 | -19.43702 | -53.15571 | 34108 ft | 438 kts | 232° |
| 2026-05-06 02:18 | -19.47291 | -53.20783 | 34101 ft | 438 kts | 232° |
| 2026-05-06 02:18 | -19.50887 | -53.26006 | 34092 ft | 437 kts | 232° |
| 2026-05-06 02:19 | -19.54477 | -53.31213 | 34089 ft | 438 kts | 232° |
| 2026-05-06 02:19 | -19.58043 | -53.36403 | 34087 ft | 438 kts | 232° |
| 2026-05-06 02:20 | -19.61577 | -53.41542 | 33768 ft | 423 kts | 232° |
| 2026-05-06 02:20 | -19.63309 | -53.44061 | 33155 ft | 422 kts | 232° |
| 2026-05-06 02:20 | -19.65035 | -53.46577 | 32430 ft | 423 kts | 232° |
| 2026-05-06 02:21 | -19.66776 | -53.49117 | 31649 ft | 426 kts | 232° |
| 2026-05-06 02:21 | -19.68529 | -53.51674 | 30839 ft | 429 kts | 232° |
| 2026-05-06 02:21 | -19.69693 | -53.53372 | 30290 ft | 431 kts | 232° |
| 2026-05-06 02:21 | -19.71468 | -53.55957 | 29326 ft | 435 kts | 232° |
| 2026-05-06 02:22 | -19.73814 | -53.59376 | 28431 ft | 430 kts | 233° |
| 2026-05-06 02:22 | -19.75001 | -53.61110 | 27994 ft | 428 kts | 233° |
| 2026-05-06 02:22 | -19.76719 | -53.63630 | 27363 ft | 425 kts | 233° |
| 2026-05-06 02:22 | -19.78448 | -53.66169 | 26729 ft | 422 kts | 233° |
| 2026-05-06 02:23 | -19.80161 | -53.68679 | 26111 ft | 419 kts | 233° |
| 2026-05-06 02:23 | -19.81872 | -53.71179 | 25502 ft | 416 kts | 233° |
| 2026-05-06 02:23 | -19.83573 | -53.73658 | 24904 ft | 414 kts | 233° |
| 2026-05-06 02:23 | -19.85261 | -53.76123 | 24315 ft | 411 kts | 233° |
| 2026-05-06 02:24 | -19.86934 | -53.78571 | 23741 ft | 409 kts | 233° |
| 2026-05-06 02:24 | -19.88601 | -53.81012 | 23081 ft | 406 kts | 233° |
| 2026-05-06 02:24 | -19.90259 | -53.83442 | 22444 ft | 404 kts | 233° |
| 2026-05-06 02:24 | -19.91906 | -53.85859 | 22149 ft | 404 kts | 233° |
| 2026-05-06 02:25 | -19.93537 | -53.88252 | 21900 ft | 404 kts | 233° |
| 2026-05-06 02:25 | -19.95186 | -53.90673 | 21659 ft | 404 kts | 233° |
| 2026-05-06 02:25 | -19.96830 | -53.93088 | 21413 ft | 403 kts | 233° |
| 2026-05-06 02:25 | -19.98474 | -53.95506 | 21165 ft | 402 kts | 233° |
| 2026-05-06 02:26 | -20.00109 | -53.97912 | 20927 ft | 401 kts | 233° |
| 2026-05-06 02:26 | -20.01745 | -54.00317 | 20689 ft | 400 kts | 233° |
| 2026-05-06 02:26 | -20.03383 | -54.02723 | 20456 ft | 399 kts | 233° |
| 2026-05-06 02:26 | -20.04988 | -54.05081 | 20218 ft | 398 kts | 233° |
| 2026-05-06 02:27 | -20.06610 | -54.07467 | 19979 ft | 397 kts | 233° |
| 2026-05-06 02:27 | -20.08280 | -54.09800 | 19746 ft | 396 kts | 228° |
| 2026-05-06 02:27 | -20.10153 | -54.11951 | 19518 ft | 395 kts | 226° |
| 2026-05-06 02:27 | -20.12026 | -54.14089 | 19289 ft | 394 kts | 227° |
| 2026-05-06 02:28 | -20.13890 | -54.16225 | 19067 ft | 394 kts | 227° |
| 2026-05-06 02:28 | -20.15753 | -54.18364 | 18843 ft | 393 kts | 227° |
| 2026-05-06 02:28 | -20.17609 | -54.20496 | 18615 ft | 392 kts | 227° |
| 2026-05-06 02:28 | -20.19462 | -54.22621 | 18405 ft | 392 kts | 227° |
| 2026-05-06 02:29 | -20.21317 | -54.24747 | 18144 ft | 391 kts | 227° |
| 2026-05-06 02:29 | -20.23167 | -54.26870 | 17890 ft | 391 kts | 227° |
| 2026-05-06 02:29 | -20.25004 | -54.28979 | 17483 ft | 385 kts | 227° |
| 2026-05-06 02:29 | -20.26801 | -54.31045 | 16970 ft | 381 kts | 227° |
| 2026-05-06 02:30 | -20.28595 | -54.33107 | 16441 ft | 377 kts | 227° |
| 2026-05-06 02:30 | -20.30375 | -54.35153 | 15914 ft | 374 kts | 227° |
| 2026-05-06 02:30 | -20.32138 | -54.37181 | 15375 ft | 372 kts | 227° |
| 2026-05-06 02:30 | -20.33893 | -54.39199 | 14845 ft | 370 kts | 227° |
| 2026-05-06 02:31 | -20.35619 | -54.41185 | 14350 ft | 367 kts | 227° |
| 2026-05-06 02:31 | -20.37341 | -54.43163 | 13874 ft | 358 kts | 227° |
| 2026-05-06 02:31 | -20.39007 | -54.45078 | 13342 ft | 347 kts | 227° |
| 2026-05-06 02:31 | -20.40641 | -54.46922 | 12884 ft | 336 kts | 223° |
| 2026-05-06 02:32 | -20.42352 | -54.48565 | 12442 ft | 325 kts | 221° |
| 2026-05-06 02:32 | -20.44017 | -54.50163 | 12009 ft | 317 kts | 221° |
| 2026-05-06 02:32 | -20.45612 | -54.51701 | 11582 ft | 311 kts | 221° |
| 2026-05-06 02:32 | -20.47277 | -54.53306 | 10831 ft | 333 kts | 221° |
| 2026-05-06 02:33 | -20.48984 | -54.54948 | 10399 ft | 325 kts | 221° |
| 2026-05-06 02:33 | -20.50083 | -54.56006 | 10164 ft | 318 kts | 221° |
| 2026-05-06 02:34 | -20.55402 | -54.61125 | 9432 ft | 309 kts | 221° |
| 2026-05-06 02:34 | -20.56999 | -54.62665 | 9309 ft | 309 kts | 222° |
| 2026-05-06 02:34 | -20.58594 | -54.64205 | 9059 ft | 310 kts | 222° |
| 2026-05-06 02:34 | -20.60224 | -54.65776 | 8532 ft | 315 kts | 222° |
| 2026-05-06 02:35 | -20.61836 | -54.67332 | 8271 ft | 309 kts | 222° |
| 2026-05-06 02:35 | -20.63425 | -54.68868 | 7937 ft | 307 kts | 222° |
| 2026-05-06 02:35 | -20.64794 | -54.70584 | 7519 ft | 302 kts | 244° |
| 2026-05-06 02:35 | -20.65280 | -54.72721 | 6782 ft | 301 kts | 275° |
| 2026-05-06 02:36 | -20.64695 | -54.74799 | 6352 ft | 286 kts | 305° |
| 2026-05-06 02:36 | -20.63478 | -54.76389 | 6103 ft | 268 kts | 316° |
| 2026-05-06 02:36 | -20.62251 | -54.77829 | 5855 ft | 256 kts | 316° |
| 2026-05-06 02:36 | -20.60870 | -54.78878 | 5582 ft | 235 kts | 346° |
| 2026-05-06 02:37 | -20.59331 | -54.78927 | 5209 ft | 219 kts | 19° |
| 2026-05-06 02:37 | -20.58080 | -54.78120 | 4753 ft | 207 kts | 43° |
| 2026-05-06 02:37 | -20.57026 | -54.77097 | 4358 ft | 201 kts | 43° |
| 2026-05-06 02:37 | -20.56017 | -54.76117 | 4062 ft | 190 kts | 43° |
| 2026-05-06 02:38 | -20.55089 | -54.75214 | 3819 ft | 178 kts | 43° |
| 2026-05-06 02:38 | -20.54193 | -54.74344 | 3496 ft | 169 kts | 44° |
| 2026-05-06 02:38 | -20.53352 | -54.73531 | 3262 ft | 157 kts | 43° |
| 2026-05-06 02:38 | -20.52561 | -54.72767 | 3056 ft | 150 kts | 44° |
| 2026-05-06 02:39 | -20.51797 | -54.72029 | 2868 ft | 146 kts | 43° |
| 2026-05-06 02:39 | -20.51040 | -54.71298 | 2689 ft | 147 kts | 43° |
| 2026-05-06 02:39 | -20.50291 | -54.70575 | 2509 ft | 140 kts | 43° |
| 2026-05-06 02:39 | -20.49576 | -54.69885 | 2322 ft | 138 kts | 44° |
| 2026-05-06 02:40 | -20.48863 | -54.69197 | 2123 ft | 138 kts | 43° |
| 2026-05-06 02:40 | -20.48149 | -54.68512 | 1917 ft | 137 kts | 44° |
| 2026-05-06 02:40 | -20.47465 | -54.67845 | 1839 ft | 128 kts | 42° |
| 2026-05-06 02:40 | -20.47025 | -54.67427 | 1838 ft | 41 kts | 40° |
| 2026-05-06 02:41 | -20.46829 | -54.67239 | 1840 ft | 40 kts | 41° |
| 2026-05-06 02:41 | -20.46610 | -54.67029 | 1840 ft | 44 kts | 42° |
| 2026-05-06 02:41 | -20.46373 | -54.66798 | 1838 ft | 48 kts | 43° |
| 2026-05-06 02:41 | -20.46158 | -54.66608 | 1838 ft | 19 kts | 7° |
| 2026-05-06 02:42 | -20.46029 | -54.66653 | 1839 ft | 20 kts | 339° |
| 2026-05-06 02:42 | -20.45892 | -54.66709 | 1839 ft | 22 kts | 337° |
| 2026-05-06 02:42 | -20.45841 | -54.66837 | 1839 ft | 16 kts | 265° |
| 2026-05-06 02:42 | -20.45847 | -54.66898 | 1839 ft | 8 kts | 263° |
| 2026-05-06 02:43 | -20.45816 | -54.66931 | 1839 ft | 7 kts | 355° |
| 2026-05-06 02:43 | -20.45792 | -54.66932 | 1839 ft | 2 kts | 354° |
| 2026-05-06 02:43 | -20.45791 | -54.66933 | 1839 ft | 0 kts | 355° |